createdAt,value
2023-04-20T00:02:05.643Z,100224.25
2023-04-20T00:05:09.281Z,100221.75
2023-04-20T00:08:12.017Z,100212.75
2023-04-20T00:11:14.752Z,100217.78
2023-04-20T00:14:17.470Z,100218.06
2023-04-20T00:17:20.010Z,100218.06
2023-04-20T00:20:23.102Z,100227.44
2023-04-20T00:23:25.943Z,100223.13
2023-04-20T00:26:28.426Z,100214.94
2023-04-20T00:29:31.745Z,100211.06
2023-04-20T00:32:34.431Z,100208.00
2023-04-20T00:35:37.004Z,100206.31
2023-04-20T00:38:39.522Z,100202.78
2023-04-20T00:41:42.141Z,100205.84
2023-04-20T00:44:44.626Z,100208.81
2023-04-20T00:47:47.467Z,100205.91
2023-04-20T00:50:50.816Z,100205.59
2023-04-20T00:53:53.462Z,100197.47
2023-04-20T00:56:58.047Z,100212.03
2023-04-20T01:00:01.545Z,100210.13
2023-04-20T01:03:05.211Z,100204.34
2023-04-20T01:06:09.315Z,100201.88
2023-04-20T01:09:12.640Z,100193.28
2023-04-20T01:12:15.638Z,100197.50
2023-04-20T01:15:19.743Z,100211.16
2023-04-20T01:18:22.939Z,100198.53
2023-04-20T01:21:25.656Z,100202.38
2023-04-20T01:24:28.456Z,100203.00
2023-04-20T01:27:31.400Z,100212.19
2023-04-20T01:30:37.955Z,100211.00
2023-04-20T01:33:43.277Z,100212.13
2023-04-20T01:36:46.035Z,100218.81
2023-04-20T01:39:48.725Z,100215.44
2023-04-20T01:42:51.337Z,100211.38
2023-04-20T01:45:53.996Z,100207.00
2023-04-20T01:48:56.526Z,100208.66
2023-04-20T01:51:59.047Z,100202.50
2023-04-20T01:55:01.522Z,100206.47
2023-04-20T01:58:04.084Z,100211.44
2023-04-20T02:01:06.784Z,100199.22
2023-04-20T02:04:09.650Z,100204.09
2023-04-20T02:07:12.174Z,100203.34
2023-04-20T02:10:14.828Z,100195.72
2023-04-20T02:13:21.551Z,100202.91
2023-04-20T02:16:24.144Z,100201.41
2023-04-20T02:19:26.765Z,100203.78
2023-04-20T02:22:29.466Z,100199.09
2023-04-20T02:25:32.047Z,100203.94
2023-04-20T02:28:34.716Z,100202.22
2023-04-20T02:31:40.031Z,100202.69
2023-04-20T02:34:42.909Z,100205.59
2023-04-20T02:37:45.871Z,100207.41
2023-04-20T02:40:49.473Z,100206.78
2023-04-20T02:43:53.249Z,100206.50
2023-04-20T02:46:55.925Z,100200.53
2023-04-20T02:50:00.882Z,100207.69
2023-04-20T02:53:03.582Z,100203.53
2023-04-20T02:56:09.406Z,100206.84
2023-04-20T02:59:19.573Z,100216.34
2023-04-20T03:02:43.025Z,100211.38
2023-04-20T03:05:45.764Z,100216.88
2023-04-20T03:08:49.117Z,100211.31
2023-04-20T03:12:18.573Z,100224.56
2023-04-20T03:15:39.968Z,100232.22
2023-04-20T03:18:57.791Z,100223.63
2023-04-20T03:22:00.557Z,100225.16
2023-04-20T03:25:03.104Z,100231.75
2023-04-20T03:28:37.716Z,100228.78
2023-04-20T03:31:40.353Z,100230.13
2023-04-20T03:34:44.429Z,100227.28
2023-04-20T03:37:47.110Z,100230.13
2023-04-20T03:40:49.611Z,100232.09
2023-04-20T03:43:52.368Z,100233.25
2023-04-20T03:46:54.848Z,100237.91
2023-04-20T03:49:57.688Z,100243.03
2023-04-20T03:53:00.417Z,100244.59
2023-04-20T03:56:03.368Z,100248.41
2023-04-20T03:59:06.856Z,100247.88
2023-04-20T04:02:10.998Z,100252.00
2023-04-20T04:05:14.001Z,100239.91
2023-04-20T04:08:16.522Z,100241.88
2023-04-20T04:11:19.267Z,100243.56
2023-04-20T04:14:22.563Z,100244.66
2023-04-20T04:17:25.259Z,100244.47
2023-04-20T04:20:29.662Z,100239.47
2023-04-20T04:23:32.975Z,100244.38
2023-04-20T04:26:56.427Z,100247.69
2023-04-20T04:30:03.599Z,100248.47
2023-04-20T04:33:10.209Z,100243.28
2023-04-20T04:36:15.402Z,100251.38
2023-04-20T04:39:18.454Z,100255.78
2023-04-20T04:42:30.240Z,100252.22
2023-04-20T04:45:43.331Z,100252.81
2023-04-20T04:48:48.000Z,100259.44
2023-04-20T04:51:50.807Z,100258.16
2023-04-20T04:54:53.448Z,100258.06
2023-04-20T04:57:57.321Z,100260.09
2023-04-20T05:00:59.896Z,100259.88
2023-04-20T05:04:02.759Z,100261.44
2023-04-20T05:07:05.514Z,100264.44
2023-04-20T05:10:08.616Z,100262.31
2023-04-20T05:13:11.390Z,100272.06
2023-04-20T05:16:14.129Z,100269.28
2023-04-20T05:19:17.354Z,100274.75
2023-04-20T05:22:20.726Z,100264.69
2023-04-20T05:25:23.594Z,100272.63
2023-04-20T05:28:26.916Z,100278.88
2023-04-20T05:31:31.011Z,100274.25
2023-04-20T05:34:34.118Z,100274.19
2023-04-20T05:37:36.660Z,100268.47
2023-04-20T05:40:39.242Z,100273.75
2023-04-20T05:43:42.041Z,100279.38
2023-04-20T05:46:44.643Z,100283.34
2023-04-20T05:49:47.526Z,100278.47
2023-04-20T05:52:51.170Z,100279.94
2023-04-20T05:55:53.723Z,100284.53
2023-04-20T05:58:57.204Z,100284.94
2023-04-20T06:02:01.019Z,100285.38
2023-04-20T06:05:04.375Z,100293.78
2023-04-20T06:08:07.261Z,100290.75
2023-04-20T06:11:09.971Z,100289.91
2023-04-20T06:14:14.449Z,100289.09
2023-04-20T06:17:16.998Z,100294.41
2023-04-20T06:20:20.496Z,100288.88
2023-04-20T06:23:23.193Z,100291.56
2023-04-20T06:26:26.246Z,100295.25
2023-04-20T06:29:29.106Z,100292.13
2023-04-20T06:32:31.810Z,100290.44
2023-04-20T06:35:34.389Z,100290.84
2023-04-20T06:38:37.081Z,100291.63
2023-04-20T06:41:39.650Z,100295.53
2023-04-20T06:44:42.918Z,100291.75
2023-04-20T06:47:45.798Z,100286.38
2023-04-20T06:50:51.548Z,100290.25
2023-04-20T06:53:54.643Z,100290.25
2023-04-20T06:56:57.606Z,100293.47
2023-04-20T07:00:02.689Z,100290.94
2023-04-20T07:03:06.411Z,100297.63
2023-04-20T07:06:11.161Z,100290.00
2023-04-20T07:09:16.813Z,100288.84
2023-04-20T07:12:21.343Z,100293.56
2023-04-20T07:15:24.249Z,100288.47
2023-04-20T07:18:26.815Z,100293.97
2023-04-20T07:21:30.776Z,100299.19
2023-04-20T07:24:34.086Z,100306.84
2023-04-20T07:27:38.905Z,100305.69
2023-04-20T07:30:41.470Z,100301.81
2023-04-20T07:33:44.751Z,100304.22
2023-04-20T07:36:47.496Z,100307.41
2023-04-20T07:39:53.238Z,100303.53
2023-04-20T07:42:55.947Z,100299.44
2023-04-20T07:45:58.512Z,100297.66
2023-04-20T07:49:01.166Z,100304.13
2023-04-20T07:52:15.789Z,100299.06
2023-04-20T07:55:19.903Z,100302.41
2023-04-20T07:58:22.559Z,100301.81
2023-04-20T08:01:26.184Z,100296.66
2023-04-20T08:04:28.864Z,100295.50
2023-04-20T08:07:31.840Z,100304.22
2023-04-20T08:10:35.164Z,100302.00
2023-04-20T08:13:37.844Z,100305.81
2023-04-20T08:16:40.588Z,100298.94
2023-04-20T08:19:44.953Z,100298.50
2023-04-20T08:22:49.365Z,100302.47
2023-04-20T08:25:51.918Z,100294.31
2023-04-20T08:28:54.488Z,100294.47
2023-04-20T08:31:58.432Z,100293.53
2023-04-20T08:35:01.355Z,100302.91
2023-04-20T08:38:04.067Z,100297.66
2023-04-20T08:41:06.756Z,100290.50
2023-04-20T08:44:09.610Z,100295.41
2023-04-20T08:47:13.045Z,100295.66
2023-04-20T08:50:16.599Z,100286.84
2023-04-20T08:53:20.738Z,100288.13
2023-04-20T08:56:37.850Z,100282.38
2023-04-20T08:59:40.636Z,100292.31
2023-04-20T09:02:54.669Z,100294.91
2023-04-20T09:05:57.794Z,100294.66
2023-04-20T09:09:00.319Z,100302.84
2023-04-20T09:12:08.092Z,100294.41
2023-04-20T09:15:11.605Z,100298.56
2023-04-20T09:18:16.083Z,100294.19
2023-04-20T09:21:18.655Z,100291.38
2023-04-20T09:24:24.017Z,100288.16
2023-04-20T09:27:26.573Z,100282.69
2023-04-20T09:30:47.423Z,100280.94
2023-04-20T09:34:00.718Z,100280.81
2023-04-20T09:37:07.255Z,100280.09
2023-04-20T09:40:10.875Z,100278.13
2023-04-20T09:43:19.106Z,100276.78
2023-04-20T09:46:22.500Z,100275.53
2023-04-20T09:49:26.177Z,100271.78
2023-04-20T09:52:29.679Z,100278.38
2023-04-20T09:55:32.715Z,100263.31
2023-04-20T09:58:36.924Z,100269.50
2023-04-20T10:01:40.638Z,100268.63
2023-04-20T10:04:57.047Z,100270.06
2023-04-20T10:08:00.871Z,100266.66
2023-04-20T10:11:03.518Z,100261.94
2023-04-20T10:14:19.648Z,100268.84
2023-04-20T10:17:33.092Z,100259.72
2023-04-20T10:20:35.912Z,100259.09
2023-04-20T10:23:51.322Z,100250.50
2023-04-20T10:26:53.909Z,100253.03
2023-04-20T10:29:56.509Z,100248.44
2023-04-20T10:33:11.484Z,100243.88
2023-04-20T10:36:23.489Z,100242.59
2023-04-20T10:39:27.617Z,100241.19
2023-04-20T10:42:41.862Z,100238.81
2023-04-20T10:45:44.625Z,100231.72
2023-04-20T10:49:05.029Z,100230.16
2023-04-20T10:52:07.703Z,100224.31
2023-04-20T10:55:21.340Z,100233.69
2023-04-20T10:58:25.828Z,100232.03
2023-04-20T11:01:33.922Z,100229.16
2023-04-20T11:04:37.547Z,100225.28
2023-04-20T11:07:56.161Z,100223.31
2023-04-20T11:10:58.797Z,100222.72
2023-04-20T11:14:11.855Z,100218.72
2023-04-20T11:17:14.473Z,100216.44
2023-04-20T11:20:18.693Z,100217.03
2023-04-20T11:23:22.743Z,100208.41
2023-04-20T11:26:35.432Z,100197.06
2023-04-20T11:29:39.850Z,100205.75
2023-04-20T11:32:43.939Z,100195.34
2023-04-20T11:35:46.687Z,100205.47
2023-04-20T11:38:49.775Z,100199.28
2023-04-20T11:41:53.033Z,100209.94
2023-04-20T11:44:56.498Z,100203.75
2023-04-20T11:48:00.156Z,100205.09
2023-04-20T11:51:04.057Z,100195.25
2023-04-20T11:54:07.561Z,100192.97
2023-04-20T11:57:10.292Z,100199.69
2023-04-20T12:00:14.104Z,100200.50
2023-04-20T12:03:16.923Z,100196.22
2023-04-20T12:06:20.537Z,100201.34
2023-04-20T12:09:23.258Z,100193.44
2023-04-20T12:12:26.767Z,100191.78
2023-04-20T12:15:29.417Z,100185.81
2023-04-20T12:18:31.981Z,100180.94
2023-04-20T12:21:34.753Z,100184.63
2023-04-20T12:24:38.515Z,100182.38
2023-04-20T12:27:41.189Z,100177.88
2023-04-20T12:30:44.128Z,100168.88
2023-04-20T12:33:46.981Z,100171.53
2023-04-20T12:36:49.509Z,100173.91
2023-04-20T12:39:52.357Z,100179.88
2023-04-20T12:42:55.063Z,100173.53
2023-04-20T12:45:57.556Z,100159.22
2023-04-20T12:49:00.208Z,100166.06
2023-04-20T12:52:02.885Z,100167.34
2023-04-20T12:55:07.472Z,100168.28
2023-04-20T12:58:10.204Z,100163.22
2023-04-20T13:01:12.863Z,100155.00
2023-04-20T13:04:16.391Z,100156.16
2023-04-20T13:07:19.272Z,100149.81
2023-04-20T13:10:21.825Z,100145.59
2023-04-20T13:13:24.378Z,100136.22
2023-04-20T13:16:27.118Z,100135.56
2023-04-20T13:19:30.771Z,100136.78
2023-04-20T13:22:34.653Z,100133.72
2023-04-20T13:25:38.997Z,100138.28
2023-04-20T13:28:41.730Z,100132.84
2023-04-20T13:31:44.634Z,100138.88
2023-04-20T13:34:47.301Z,100125.34
2023-04-20T13:37:50.066Z,100129.41
2023-04-20T13:40:52.655Z,100135.13
2023-04-20T13:43:56.494Z,100120.75
2023-04-20T13:46:59.103Z,100119.13
2023-04-20T13:50:03.672Z,100116.47
2023-04-20T13:53:06.312Z,100118.97
2023-04-20T13:56:08.942Z,100119.47
2023-04-20T13:59:12.864Z,100123.31
2023-04-20T14:02:15.531Z,100103.84
2023-04-20T14:05:18.646Z,100112.63
2023-04-20T14:08:23.350Z,100099.44
2023-04-20T14:11:26.011Z,100097.16
2023-04-20T14:14:28.614Z,100100.47
2023-04-20T14:17:31.718Z,100100.66
2023-04-20T14:20:34.912Z,100099.91
2023-04-20T14:23:37.659Z,100099.06
2023-04-20T14:26:41.260Z,100089.41
2023-04-20T14:29:44.114Z,100102.03
2023-04-20T14:32:58.101Z,100084.41
2023-04-20T14:36:00.882Z,100081.72
2023-04-20T14:39:03.901Z,100083.53
2023-04-20T14:42:07.730Z,100078.06
2023-04-20T14:45:11.685Z,100084.84
2023-04-20T14:48:14.230Z,100085.03
2023-04-20T14:51:19.056Z,100079.88
2023-04-20T14:54:21.716Z,100070.47
2023-04-20T14:57:24.279Z,100082.44
2023-04-20T15:00:30.214Z,100080.47
2023-04-20T15:03:33.156Z,100080.31
2023-04-20T15:06:36.072Z,100073.50
2023-04-20T15:09:38.818Z,100079.69
2023-04-20T15:12:41.364Z,100072.78
2023-04-20T15:15:48.766Z,100075.38
2023-04-20T15:18:54.559Z,100069.19
2023-04-20T15:21:57.286Z,100077.53
2023-04-20T15:24:59.901Z,100080.97
2023-04-20T15:28:02.353Z,100091.47
2023-04-20T15:31:07.844Z,100094.28
2023-04-20T15:34:11.441Z,100103.53
2023-04-20T15:37:13.906Z,100107.09
2023-04-20T15:40:17.919Z,100104.09
2023-04-20T15:43:20.585Z,100111.31
2023-04-20T15:46:25.414Z,100110.72
2023-04-20T15:49:28.368Z,100110.63
2023-04-20T15:52:32.514Z,100110.63
2023-04-20T15:55:38.871Z,100100.69
2023-04-20T15:58:42.001Z,100096.09
2023-04-20T16:01:44.758Z,100103.47
2023-04-20T16:04:47.737Z,100113.44
2023-04-20T16:07:50.512Z,100102.59
2023-04-20T16:10:54.912Z,100107.13
2023-04-20T16:13:57.941Z,100110.91
2023-04-20T16:17:03.361Z,100115.19
2023-04-20T16:20:06.624Z,100120.31
2023-04-20T16:23:09.682Z,100120.97
2023-04-20T16:26:12.204Z,100121.75
2023-04-20T16:29:14.833Z,100124.41
2023-04-20T16:32:17.307Z,100135.34
2023-04-20T16:35:21.253Z,100137.28
2023-04-20T16:38:24.116Z,100133.47
2023-04-20T16:41:27.175Z,100143.03
2023-04-20T16:44:29.904Z,100140.34
2023-04-20T16:47:32.526Z,100136.00
2023-04-20T16:50:35.540Z,100128.66
2023-04-20T16:53:38.071Z,100142.06
2023-04-20T16:56:40.858Z,100142.41
2023-04-20T16:59:45.284Z,100140.53
2023-04-20T17:02:50.565Z,100138.34
2023-04-20T17:05:53.171Z,100147.25
2023-04-20T17:08:57.643Z,100135.81
2023-04-20T17:12:01.483Z,100138.84
2023-04-20T17:15:04.438Z,100137.41
2023-04-20T17:18:07.709Z,100138.22
2023-04-20T17:21:10.306Z,100138.66
2023-04-20T17:24:13.314Z,100133.50
2023-04-20T17:27:16.098Z,100137.59
2023-04-20T17:30:18.901Z,100140.72
2023-04-20T17:33:21.702Z,100144.88
2023-04-20T17:36:24.259Z,100146.09
2023-04-20T17:39:27.123Z,100146.03
2023-04-20T17:42:29.800Z,100147.16
2023-04-20T17:45:33.436Z,100156.81
2023-04-20T17:48:36.159Z,100159.19
2023-04-20T17:51:39.110Z,100161.16
2023-04-20T17:54:41.638Z,100159.16
2023-04-20T17:57:44.358Z,100175.09
2023-04-20T18:00:47.726Z,100178.75
2023-04-20T18:03:50.808Z,100184.03
2023-04-20T18:06:53.610Z,100194.38
2023-04-20T18:09:56.123Z,100198.53
2023-04-20T18:12:58.926Z,100205.66
2023-04-20T18:16:06.904Z,100213.66
2023-04-20T18:19:09.745Z,100209.34
2023-04-20T18:22:12.662Z,100219.81
2023-04-20T18:25:17.049Z,100220.63
2023-04-20T18:28:20.305Z,100226.94
2023-04-20T18:31:23.011Z,100220.06
2023-04-20T18:34:30.068Z,100235.84
2023-04-20T18:37:32.976Z,100231.50
2023-04-20T18:40:35.685Z,100240.97
2023-04-20T18:43:38.500Z,100243.06
2023-04-20T18:46:42.208Z,100241.69
2023-04-20T18:49:45.261Z,100245.63
2023-04-20T18:52:48.026Z,100247.84
2023-04-20T18:55:52.967Z,100248.03
2023-04-20T18:58:57.972Z,100252.09
2023-04-20T19:02:01.010Z,100250.00
2023-04-20T19:05:04.556Z,100256.19
2023-04-20T19:08:07.436Z,100253.81
2023-04-20T19:11:10.377Z,100255.31
2023-04-20T19:14:13.309Z,100250.28
2023-04-20T19:17:16.082Z,100250.69
2023-04-20T19:20:19.158Z,100259.31
2023-04-20T19:23:22.208Z,100261.25
2023-04-20T19:26:25.203Z,100257.84
2023-04-20T19:29:29.534Z,100256.34
2023-04-20T19:32:33.662Z,100256.41
2023-04-20T19:35:36.599Z,100264.75
2023-04-20T19:38:39.725Z,100263.56
2023-04-20T19:41:42.492Z,100270.38
2023-04-20T19:44:45.578Z,100274.09
2023-04-20T19:47:48.430Z,100269.19
2023-04-20T19:50:51.798Z,100269.63
2023-04-20T19:53:54.334Z,100270.97
2023-04-20T19:56:57.747Z,100269.00
2023-04-20T20:00:00.485Z,100270.53
2023-04-20T20:03:04.160Z,100274.59
2023-04-20T20:06:07.812Z,100269.91
2023-04-20T20:09:10.907Z,100284.44
2023-04-20T20:12:13.778Z,100287.78
2023-04-20T20:15:16.375Z,100287.25
2023-04-20T20:18:20.650Z,100288.50
2023-04-20T20:21:23.180Z,100289.34
2023-04-20T20:24:26.046Z,100290.84
2023-04-20T20:27:28.639Z,100287.44
2023-04-20T20:30:32.267Z,100290.31
2023-04-20T20:33:34.854Z,100287.44
2023-04-20T20:36:37.562Z,100290.97
2023-04-20T20:39:40.610Z,100292.47
2023-04-20T20:42:45.228Z,100301.34
2023-04-20T20:45:47.963Z,100298.69
2023-04-20T20:48:50.613Z,100297.25
2023-04-20T20:51:53.384Z,100298.72
2023-04-20T20:54:55.902Z,100296.47
2023-04-20T20:57:58.464Z,100303.03
2023-04-20T21:01:01.081Z,100304.28
2023-04-20T21:04:04.690Z,100295.22
2023-04-20T21:07:07.409Z,100306.91
2023-04-20T21:10:11.997Z,100299.94
2023-04-20T21:13:15.836Z,100299.72
2023-04-20T21:16:18.425Z,100302.53
2023-04-20T21:19:21.632Z,100300.69
2023-04-20T21:22:24.914Z,100310.34
2023-04-20T21:25:27.462Z,100312.19
2023-04-20T21:28:29.905Z,100313.19
2023-04-20T21:31:33.295Z,100312.56
2023-04-20T21:34:35.950Z,100305.94
2023-04-20T21:37:38.530Z,100321.81
2023-04-20T21:40:41.042Z,100320.34
2023-04-20T21:43:43.796Z,100316.38
2023-04-20T21:46:46.311Z,100312.91
2023-04-20T21:49:48.736Z,100305.25
2023-04-20T21:52:51.240Z,100308.75
2023-04-20T21:55:53.738Z,100310.59
2023-04-20T21:58:58.266Z,100311.66
2023-04-20T22:02:00.816Z,100313.13
2023-04-20T22:05:04.484Z,100313.34
2023-04-20T22:08:07.576Z,100312.09
2023-04-20T22:11:10.537Z,100319.34
2023-04-20T22:14:13.273Z,100320.78
2023-04-20T22:17:15.944Z,100315.84
2023-04-20T22:20:19.491Z,100313.59
2023-04-20T22:23:22.030Z,100314.19
2023-04-20T22:26:24.426Z,100311.94
2023-04-20T22:29:26.877Z,100308.25
2023-04-20T22:32:29.455Z,100312.38
2023-04-20T22:35:31.851Z,100308.94
2023-04-20T22:38:37.957Z,100303.97
2023-04-20T22:41:40.444Z,100310.38
2023-04-20T22:44:43.026Z,100297.03
2023-04-20T22:47:46.790Z,100296.84
2023-04-20T22:50:49.290Z,100296.84
2023-04-20T22:53:51.811Z,100299.31
2023-04-20T22:56:54.261Z,100299.94
2023-04-20T22:59:56.875Z,100297.47
2023-04-20T23:02:59.790Z,100296.44
2023-04-20T23:06:03.417Z,100288.59
2023-04-20T23:09:08.213Z,100293.78
2023-04-20T23:12:11.793Z,100291.13
2023-04-20T23:15:14.307Z,100297.72
2023-04-20T23:18:16.833Z,100293.38
2023-04-20T23:21:19.358Z,100292.78
2023-04-20T23:24:21.926Z,100293.63
2023-04-20T23:27:24.528Z,100289.09
2023-04-20T23:30:27.129Z,100294.84
2023-04-20T23:33:29.797Z,100288.25
2023-04-20T23:36:32.618Z,100292.53
2023-04-20T23:39:38.425Z,100295.03
2023-04-20T23:42:41.165Z,100295.00
2023-04-20T23:45:43.715Z,100291.50
2023-04-20T23:48:46.258Z,100300.91
2023-04-20T23:51:48.841Z,100297.81
2023-04-20T23:54:51.347Z,100297.63
2023-04-20T23:57:53.892Z,100293.91
